Explora — IXWQ — position and weather

sailwx.info

Track history (hours):
 
Tides and Currents Weather Stations Pressure Air Temp Water Temp Dewpoint Dewpoint Depression Visibility Wind Speed Wind Dir Waves Ship Positions

Oceanographic research ship Explora (Italy)

Detailed information on ship capabilities available from University of Delaware's Ocean Information Center.

Last reported at 2018-May-28 10:13 UTC. Time now 2018-Jun-18 00:24 UTC.
Position S 29°50' E 032°15'.
Warning: this ship's position is 20 days out of date.

Length 73 m; draft 5.5 m.

Type: Dredging. MMSI: 247028700.

Date/timePositionNaut miles runAvg speedWind from/ knotsBaromVisibWave heightAir tempDewpointWater temp
2018-May-28 10:13S 29°50' E 032°15'8 7.6
2018-May-28 09:11S 29°51' E 032°05'3 7.5
2018-May-28 08:50S 29°51' E 032°03'6 7.3
2018-May-28 08:04S 29°53' E 031°56'0 7.0
2018-May-28 08:00S 29°53' E 031°56'4 7.4
2018-May-28 07:30S 29°53' E 031°52'0 0.8
2018-May-28 07:00S 29°53' E 031°51'0 0.3
2018-May-28 06:30S 29°53' E 031°51'0 0.4
2018-May-28 06:01S 29°53' E 031°51'0 0.2
2018-May-28 05:30S 29°53' E 031°51'0 0.8
2018-May-28 05:00S 29°53' E 031°52'0 0.7
2018-May-28 04:30S 29°53' E 031°52'0 0.7
2018-May-28 04:00S 29°53' E 031°51'0 0.7
2018-May-28 03:31S 29°54' E 031°51'0 0.5
2018-May-28 03:00S 29°54' E 031°51'0 0.6
2018-May-28 02:31S 29°54' E 031°51'0 0.7
2018-May-28 02:00S 29°54' E 031°51'0 1.0
2018-May-28 01:30S 29°55' E 031°51'1 1.1
2018-May-28 01:00S 29°55' E 031°51'1 1.2
2018-May-28 00:31S 29°56' E 031°50'0 0.9
2018-May-28 00:01S 29°56' E 031°50'0 0.5
2018-May-27 23:31S 29°56' E 031°50'0 0.3
2018-May-27 23:00S 29°56' E 031°51'0 0.7
2018-May-27 22:31S 29°57' E 031°51'1 1.5
2018-May-27 22:00S 29°57' E 031°50'0 0.9
2018-May-27 21:30S 29°57' E 031°50'1 1.1
2018-May-27 21:00S 29°57' E 031°50'4 0.4
2018-May-27 09:02S 29°55' E 031°54'0 4.7
2018-May-27 09:00S 29°55' E 031°54'2 4.8
2018-May-27 08:30S 29°58' E 031°54'1 1.4
2018-May-27 07:54S 29°57' E 031°55'1 1.8
2018-May-27 07:30S 29°56' E 031°55'1 1.5
2018-May-27 06:56S 29°55' E 031°55'2 3.2
2018-May-27 06:27S 29°55' E 031°53'2 5.1
2018-May-27 06:00S 29°55' E 031°51'0 0.7
2018-May-27 05:30S 29°55' E 031°50'1 1.1
2018-May-27 05:00S 29°55' E 031°50'0 1.0
2018-May-27 04:31S 29°56' E 031°50'0 0.9
2018-May-27 04:01S 29°56' E 031°50'1 1.1
2018-May-27 03:30S 29°56' E 031°49'0 0.9
2018-May-27 03:00S 29°57' E 031°49'0 0.9
2018-May-27 02:30S 29°57' E 031°48'0 0.8
2018-May-27 02:01S 29°57' E 031°48'0 0.7
2018-May-27 01:30S 29°57' E 031°47'0 0.8
2018-May-27 01:00S 29°56' E 031°47'0 0.4
2018-May-27 00:31S 29°56' E 031°47'0 0.4
2018-May-27 00:00S 29°56' E 031°47'0 0.4
2018-May-26 23:30S 29°56' E 031°46'0 0.2
2018-May-26 23:00S 29°56' E 031°46'0 0.2
2018-May-26 22:31S 29°56' E 031°46'0 0.1
2018-May-26 22:00S 29°56' E 031°46'0 0.4
2018-May-26 21:31S 29°56' E 031°46'1 1.2
2018-May-26 20:58S 29°56' E 031°47'1 2.3
2018-May-26 20:30S 29°56' E 031°48'2 4.8
2018-May-26 20:00S 29°53' E 031°49'2 4.8
2018-May-26 19:30S 29°51' E 031°50'1 1.9
2018-May-26 19:01S 29°50' E 031°50'1 2.2
2018-May-26 18:30S 29°51' E 031°49'1 2.2
2018-May-26 18:00S 29°52' E 031°49'1 2.0
2018-May-26 17:30S 29°53' E 031°48'0 0.8
2018-May-26 17:00S 29°53' E 031°48'1 1.2
2018-May-26 16:30S 29°54' E 031°49'0 0.9
2018-May-26 16:01S 29°54' E 031°49'0 0.9
2018-May-26 15:29S 29°54' E 031°49'0 0.9
2018-May-26 14:59S 29°55' E 031°49'0 0.9
2018-May-26 14:30S 29°55' E 031°50'0 0.6
2018-May-26 14:01S 29°56' E 031°50'0 0.7
2018-May-26 13:30S 29°56' E 031°50'0 0.6
2018-May-26 13:00S 29°56' E 031°50'0 0.7
2018-May-26 12:30S 29°56' E 031°50'0 0.4
2018-May-26 12:00S 29°57' E 031°50'0 0.0
2018-May-26 11:30S 29°57' E 031°50'0 0.2
2018-May-26 11:00S 29°57' E 031°50'0 0.1
2018-May-26 10:31S 29°57' E 031°50'0 0.3
2018-May-26 09:59S 29°57' E 031°50'1 1.1
2018-May-26 09:30S 29°57' E 031°50'1 1.1
2018-May-26 09:00S 29°57' E 031°50'0 0.1
2018-May-26 08:30S 29°57' E 031°50'1 1.1
2018-May-26 08:00S 29°57' E 031°50'3 6.5
2018-May-26 07:30S 30°00' E 031°48'3 6.7
2018-May-26 07:00S 30°03' E 031°46'3 6.8
2018-May-26 06:29S 30°06' E 031°44'6 6.5
2018-May-26 05:30S 30°11' E 031°40'3 6.1
2018-May-26 05:00S 30°14' E 031°38'3 5.7
2018-May-26 04:31S 30°11' E 031°39'3 5.4
2018-May-26 04:00S 30°09' E 031°41'2 4.9
2018-May-26 03:31S 30°07' E 031°42'3 5.1
2018-May-26 02:59S 30°04' E 031°44'3 6.0
2018-May-26 02:30S 30°02' E 031°45'3 5.4
2018-May-26 02:01S 29°59' E 031°47'3 5.3
2018-May-26 01:30S 29°57' E 031°48'3 5.3
2018-May-26 00:59S 29°54' E 031°47'3 5.7
2018-May-26 00:30S 29°51' E 031°47'3 5.5
2018-May-26 00:01S 29°49' E 031°47'3 5.6
2018-May-25 23:30S 29°46' E 031°47'3 5.5
2018-May-25 23:00S 29°43' E 031°47'3 5.7
2018-May-25 22:30S 29°40' E 031°47'3 6.0
2018-May-25 22:00S 29°37' E 031°47'3 6.3
2018-May-25 21:31S 29°34' E 031°47'3 6.3
2018-May-25 21:00S 29°31' E 031°47'2 3.1
2018-May-25 20:25S 29°29' E 031°48'5 2.8
2018-May-25 18:40S 29°25' E 031°51'2 2.3
2018-May-25 17:58S 29°27' E 031°51'1 2.7
2018-May-25 17:27S 29°28' E 031°50'1 2.0
2018-May-25 17:00S 29°29' E 031°51'1 1.8
2018-May-25 16:27S 29°30' E 031°51'1 1.5
2018-May-25 15:58S 29°31' E 031°51'1 1.5
2018-May-25 15:26S 29°31' E 031°51'1 2.0
2018-May-25 14:57S 29°32' E 031°51'1 2.4
2018-May-25 14:29S 29°33' E 031°51'1 2.5
2018-May-25 13:58S 29°35' E 031°51'1 2.7
2018-May-25 13:31S 29°36' E 031°50'1 2.8
2018-May-25 13:00S 29°37' E 031°50'1 2.8
2018-May-25 12:31S 29°38' E 031°49'1 2.6
2018-May-25 12:01S 29°40' E 031°49'1 2.4
2018-May-25 11:30S 29°41' E 031°49'1 2.7
2018-May-25 11:00S 29°42' E 031°49'1 2.6
2018-May-25 10:30S 29°44' E 031°49'1 2.7
2018-May-25 10:00S 29°45' E 031°49'1 2.5
2018-May-25 09:30S 29°46' E 031°49'1 2.4
2018-May-25 09:00S 29°47' E 031°49'1 2.2
2018-May-25 08:30S 29°48' E 031°49'1 2.0
2018-May-25 08:00S 29°49' E 031°48'1 2.2
2018-May-25 07:29S 29°51' E 031°48'1 2.2
2018-May-25 07:00S 29°52' E 031°48'1 2.2
2018-May-25 06:30S 29°53' E 031°48'1 2.1
2018-May-25 05:58S 29°54' E 031°48'1 2.3
2018-May-25 05:30S 29°55' E 031°48'1 1.9
2018-May-25 05:00S 29°56' E 031°48'2 3.0
2018-May-25 04:30S 29°56' E 031°50'5 4.0
2018-May-25 03:21S 29°55' E 031°55'1 2.4
2018-May-25 03:00S 29°54' E 031°55'1 1.8
2018-May-25 02:31S 29°55' E 031°54'1 1.9
2018-May-25 02:00S 29°55' E 031°53'1 1.9
2018-May-25 01:30S 29°55' E 031°52'1 1.8
2018-May-25 01:00S 29°56' E 031°51'1 2.2
2018-May-25 00:28S 29°56' E 031°50'1 2.3
2018-May-25 00:00S 29°56' E 031°48'1 2.3
2018-May-24 23:30S 29°56' E 031°47'1 2.2
2018-May-24 23:01S 29°56' E 031°46'1 1.9
2018-May-24 22:30S 29°56' E 031°45'1 1.8
2018-May-24 22:00S 29°56' E 031°44'1 1.5
2018-May-24 21:30S 29°57' E 031°43'1 1.2
2018-May-24 21:01S 29°57' E 031°42'1 1.2
2018-May-24 20:31S 29°57' E 031°42'1 1.4
2018-May-24 20:00S 29°57' E 031°41'1 1.6
2018-May-24 19:30S 29°57' E 031°40'1 1.6
2018-May-24 19:00S 29°57' E 031°39'1 1.6
2018-May-24 18:30S 29°57' E 031°38'1 1.5
2018-May-24 18:00S 29°57' E 031°37'1 1.3
2018-May-24 17:30S 29°57' E 031°36'1 1.5
2018-May-24 17:00S 29°57' E 031°36'1 1.7
2018-May-24 16:31S 29°58' E 031°35'1 1.7
2018-May-24 16:00S 29°58' E 031°34'1 1.7
2018-May-24 15:30S 29°58' E 031°33'1 1.5
2018-May-24 15:00S 29°58' E 031°32'1 1.7
2018-May-24 14:31S 29°58' E 031°31'1 1.9
2018-May-24 14:00S 29°58' E 031°30'1 1.9
2018-May-24 13:30S 29°59' E 031°29'5 1.2
2018-May-24 09:01S 30°01' E 031°34'4 7.4
2018-May-24 08:31S 29°58' E 031°36'12 9.9
2018-May-24 07:15S 29°56' E 031°50'0 1.5
2018-May-24 07:00S 29°57' E 031°50'1 1.0
2018-May-24 06:28S 29°57' E 031°51'0 0.7
2018-May-24 05:53S 29°57' E 031°50'0 1.1
2018-May-24 05:29S 29°56' E 031°50'1 2.1
2018-May-24 05:00S 29°57' E 031°49'1 2.1
2018-May-24 04:31S 29°58' E 031°49'1 1.3
2018-May-24 04:00S 29°57' E 031°49'1 1.4
2018-May-24 03:30S 29°57' E 031°49'1 1.2
2018-May-24 03:00S 29°56' E 031°49'1 2.0
2018-May-24 02:30S 29°57' E 031°48'2 3.0
2018-May-24 02:00S 29°56' E 031°46'0 0.6
2018-May-24 01:30S 29°57' E 031°46'2 4.6
2018-May-24 01:01S 29°56' E 031°44'0 0.9
2018-May-24 00:30S 29°57' E 031°44'1 2.3
2018-May-24 00:00S 29°57' E 031°43'2 4.4
2018-May-23 23:31S 29°57' E 031°41'0 0.4
2018-May-23 23:00S 29°57' E 031°41'0 0.7
2018-May-23 22:30S 29°57' E 031°41'2 3.2
2018-May-23 22:00S 29°57' E 031°39'1 1.4
2018-May-23 21:30S 29°57' E 031°38'0 0.4
2018-May-23 21:00S 29°57' E 031°38'1 2.5
2018-May-23 20:30S 29°58' E 031°37'2 4.3
2018-May-23 20:00S 30°00' E 031°36'2 4.2
2018-May-23 19:30S 30°02' E 031°34'2 4.3
2018-May-23 19:01S 30°04' E 031°33'2 3.9
2018-May-23 18:30S 30°06' E 031°33'0 0.9
2018-May-23 18:00S 30°06' E 031°33'0 0.9
2018-May-23 17:30S 30°06' E 031°33'0 0.9
2018-May-23 17:01S 30°06' E 031°33'0 0.9
2018-May-23 16:31S 30°07' E 031°32'0 0.9
2018-May-23 16:00S 30°07' E 031°32'1 1.0
2018-May-23 15:29S 30°07' E 031°31'1 1.0
2018-May-23 15:00S 30°07' E 031°31'1 1.1
2018-May-23 14:30S 30°08' E 031°30'1 1.2
2018-May-23 14:00S 30°08' E 031°30'1 1.3
2018-May-23 13:30S 30°08' E 031°29'1 1.6
2018-May-23 13:01S 30°08' E 031°28'1 2.2
2018-May-23 12:30S 30°09' E 031°27'1 2.6
2018-May-23 12:00S 30°11' E 031°27'1 2.4
2018-May-23 11:29S 30°12' E 031°26'1 1.9
2018-May-23 11:00S 30°13' E 031°26'1 1.4
2018-May-23 10:31S 30°13' E 031°27'1 1.3
2018-May-23 10:00S 30°14' E 031°27'1 1.4
2018-May-23 09:29S 30°15' E 031°27'1 1.6
2018-May-23 09:00S 30°14' E 031°28'3 6.7
2018-May-23 08:30S 30°11' E 031°30'3 6.8
2018-May-23 08:01S 30°08' E 031°31'3 6.5
2018-May-23 07:30S 30°05' E 031°33'3 6.8
2018-May-23 07:00S 30°02' E 031°34'3 6.8
2018-May-23 06:31S 29°58' E 031°35'1 1.2
2018-May-23 06:01S 29°58' E 031°35'1 1.0
2018-May-23 05:31S 29°57' E 031°34'1 1.7
2018-May-23 05:00S 29°58' E 031°33'2 4.2
2018-May-23 04:30S 29°59' E 031°32'1 1.9
2018-May-23 04:00S 29°58' E 031°31'1 2.1
2018-May-23 03:30S 29°59' E 031°30'1 2.4
2018-May-23 02:58S 29°59' E 031°29'0 0.8
2018-May-23 02:31S 29°58' E 031°28'1 1.5
2018-May-23 02:01S 29°59' E 031°28'1 3.0
2018-May-23 01:31S 29°59' E 031°26'0 0.8
2018-May-23 00:59S 29°59' E 031°26'2 3.9
2018-May-23 00:30S 29°59' E 031°24'1 1.9
2018-May-22 23:59S 29°59' E 031°23'0 0.1
2018-May-22 23:31S 29°59' E 031°23'2 3.4
2018-May-22 23:00S 30°00' E 031°24'1 1.9
2018-May-22 22:30S 30°01' E 031°25'1 2.1
2018-May-22 22:00S 29°60' E 031°24'1 2.0
2018-May-22 21:30S 29°60' E 031°23'1 1.2
2018-May-22 21:00S 29°59' E 031°23'1 2.4
2018-May-22 20:30S 29°59' E 031°21'1 2.1
2018-May-22 20:01S 29°60' E 031°20'0 0.1
2018-May-22 19:31S 29°60' E 031°20'0 0.3
2018-May-22 19:00S 29°60' E 031°20'0 0.2
2018-May-22 18:31S 29°60' E 031°20'2 3.3
2018-May-22 18:01S 30°00' E 031°18'0 0.9
2018-May-22 17:30S 30°00' E 031°18'0 0.1
2018-May-22 17:01S 30°00' E 031°18'1 1.4
2018-May-22 16:31S 29°60' E 031°17'2 4.6
2018-May-22 16:00S 30°00' E 031°14'1 1.2
2018-May-22 15:31S 30°01' E 031°15'0 0.2
2018-May-22 15:01S 30°01' E 031°15'0 0.3
2018-May-22 14:31S 30°00' E 031°15'0 0.9
2018-May-22 14:00S 30°00' E 031°15'3 6.5
2018-May-22 13:31S 30°01' E 031°11'5 9.5
2018-May-22 13:01S 30°01' E 031°05'5 9.2
2018-May-22 12:30S 30°02' E 031°00'2 3.2
2018-May-22 12:00S 30°02' E 030°58'1 2.0
2018-May-22 11:30S 30°02' E 030°57'1 1.3
2018-May-22 11:00S 30°02' E 030°57'1 2.9
2018-May-22 10:31S 30°03' E 030°55'0 0.3
2018-May-22 10:01S 30°03' E 030°55'0 0.9
2018-May-22 09:30S 30°03' E 030°56'1 2.0
2018-May-22 09:00S 30°03' E 030°57'0 0.7
2018-May-22 08:31S 30°03' E 030°57'0 0.8
2018-May-22 08:00S 30°03' E 030°57'0 0.7
2018-May-22 07:31S 30°03' E 030°57'0 0.6
2018-May-22 07:00S 30°03' E 030°57'1 2.3
2018-May-22 06:31S 30°03' E 030°56'2 3.6
2018-May-22 06:00S 30°03' E 030°58'5 9.7
2018-May-22 05:31S 30°03' E 031°04'5 9.7
2018-May-22 05:01S 30°02' E 031°09'5 9.4
2018-May-22 04:30S 30°01' E 031°15'1 1.9
2018-May-22 04:00S 30°01' E 031°14'0 0.6
2018-May-22 03:30S 30°01' E 031°13'0 0.7
2018-May-22 03:00S 30°01' E 031°14'0 0.6
2018-May-22 02:30S 30°01' E 031°13'0 0.2
2018-May-22 02:00S 30°01' E 031°13'1 1.2
2018-May-22 01:31S 30°01' E 031°13'1 1.7
2018-May-22 01:00S 30°01' E 031°12'0 0.6
2018-May-22 00:31S 30°01' E 031°12'0 0.3
2018-May-22 00:00S 30°01' E 031°12'0 0.6
2018-May-21 23:30S 30°01' E 031°11'2 3.6
2018-May-21 23:00S 30°02' E 031°09'0 0.6
2018-May-21 22:31S 30°02' E 031°09'0 0.0
2018-May-21 22:00S 30°02' E 031°09'1 2.0
2018-May-21 21:30S 30°02' E 031°08'1 1.6
2018-May-21 21:00S 30°02' E 031°07'0 0.3
2018-May-21 20:30S 30°02' E 031°07'0 0.3
2018-May-21 20:00S 30°02' E 031°07'2 3.6
2018-May-21 19:30S 30°02' E 031°05'1 1.6
2018-May-21 19:00S 30°02' E 031°04'0 0.2
2018-May-21 18:31S 30°02' E 031°04'1 3.0
2018-May-21 18:01S 30°03' E 031°02'1 1.5
2018-May-21 17:31S 30°03' E 031°02'0 0.5
2018-May-21 17:00S 30°03' E 031°01'1 3.0
2018-May-21 16:30S 30°03' E 030°60'0 0.5
2018-May-21 16:00S 30°03' E 030°59'0 0.4
2018-May-21 15:30S 30°03' E 030°59'1 2.3
2018-May-21 15:00S 30°03' E 030°58'0 0.8
2018-May-21 14:31S 30°02' E 030°58'1 1.3
2018-May-21 13:58S 30°03' E 030°58'1 2.2
2018-May-21 13:30S 30°02' E 030°57'1 1.1
2018-May-21 13:01S 30°02' E 030°57'0 0.3
2018-May-21 12:30S 30°01' E 030°57'1 2.9
2018-May-21 12:01S 30°02' E 030°58'1 2.4
2018-May-21 11:30S 30°02' E 030°57'1 1.1
2018-May-21 11:00S 30°01' E 030°57'1 2.7
2018-May-21 10:30S 30°03' E 030°56'1 2.5
2018-May-21 10:00S 30°03' E 030°55'1 2.0
2018-May-21 09:30S 30°03' E 030°56'3 3.3
2018-May-21 08:34S 30°03' E 030°59'0 2.1
2018-May-21 08:30S 30°03' E 030°59'2 3.2
2018-May-21 08:01S 30°03' E 030°57'2 4.6
2018-May-21 07:30S 30°03' E 030°60'1 2.0
2018-May-21 07:01S 30°03' E 030°59'0 0.5
2018-May-21 06:31S 30°03' E 030°59'1 1.3
2018-May-21 06:00S 30°03' E 030°58'0 0.3
2018-May-21 05:31S 30°03' E 030°58'1 2.1
2018-May-21 05:00S 30°03' E 030°57'2 3.1
2018-May-21 04:30S 30°03' E 030°55'2 3.0
2018-May-21 04:00S 30°03' E 030°57'1 1.8
2018-May-21 03:30S 30°03' E 030°56'1 1.6
2018-May-21 03:00S 30°03' E 030°56'2 3.1
2018-May-21 02:30S 30°03' E 030°58'2 3.8
2018-May-21 02:01S 30°03' E 031°00'2 4.2
2018-May-21 01:30S 30°03' E 030°58'2 4.0
2018-May-21 01:01S 30°03' E 030°56'0 0.5
2018-May-21 00:30S 30°03' E 030°56'2 4.0
2018-May-21 00:01S 30°03' E 030°58'1 1.1
2018-May-20 23:30S 30°03' E 030°59'2 3.6
2018-May-20 23:01S 30°02' E 030°57'1 2.0
2018-May-20 22:30S 30°02' E 030°58'1 1.2
2018-May-20 22:00S 30°02' E 030°58'2 4.3
2018-May-20 21:30S 30°01' E 030°56'2 4.0
2018-May-20 21:00S 30°02' E 030°58'0 0.5
2018-May-20 20:30S 30°02' E 030°59'2 4.3
2018-May-20 20:00S 30°01' E 030°57'0 0.3
2018-May-20 19:30S 30°01' E 030°57'0 0.4
2018-May-20 19:00S 30°01' E 030°57'0 0.6
2018-May-20 18:30S 30°02' E 030°57'2 4.3
2018-May-20 18:01S 30°03' E 030°59'2 3.7
2018-May-20 17:30S 30°03' E 030°57'2 3.1
2018-May-20 17:00S 30°03' E 030°55'0 0.6
2018-May-20 16:30S 30°03' E 030°55'0 0.0
2018-May-20 16:00S 30°03' E 030°55'4 7.0
2018-May-20 15:30S 30°03' E 030°59'1 2.6
2018-May-20 15:00S 30°03' E 031°00'0 0.0
2018-May-20 14:30S 30°03' E 031°00'2 4.7
2018-May-20 14:00S 30°03' E 031°03'0 0.7
2018-May-20 13:30S 30°03' E 031°03'0 0.5
2018-May-20 13:00S 30°02' E 031°02'1 1.3
2018-May-20 12:30S 30°03' E 031°02'4 7.4
2018-May-20 12:00S 30°02' E 031°06'0 0.7
2018-May-20 11:30S 30°02' E 031°06'0 0.7
2018-May-20 11:00S 30°02' E 031°06'0 0.8
2018-May-20 10:30S 30°02' E 031°05'0 0.7
2018-May-20 10:01S 30°03' E 031°05'0 0.9
2018-May-20 09:31S 30°03' E 031°05'0 0.8
2018-May-20 09:01S 30°03' E 031°04'0 0.5
2018-May-20 08:30S 30°03' E 031°04'0 0.2
2018-May-20 08:01S 30°03' E 031°04'0 0.4
2018-May-20 07:30S 30°03' E 031°04'0 0.3
2018-May-20 07:00S 30°03' E 031°04'0 0.1
2018-May-20 06:31S 30°03' E 031°04'1 1.1
2018-May-20 06:00S 30°03' E 031°04'0 0.8
2018-May-20 05:31S 30°03' E 031°04'0 0.8
2018-May-20 05:00S 30°03' E 031°04'0 0.8
2018-May-20 04:30S 30°03' E 031°03'0 0.9
2018-May-20 03:58S 30°03' E 031°03'0 0.6
2018-May-20 03:30S 30°03' E 031°02'1 2.1
2018-May-20 03:00S 30°03' E 031°03'3 6.9
2018-May-20 02:31S 30°02' E 031°07'1 1.0
2018-May-20 02:00S 30°02' E 031°07'0 0.2
2018-May-20 01:30S 30°02' E 031°07'0 0.7
2018-May-20 01:00S 30°02' E 031°07'0 0.7
2018-May-20 00:30S 30°02' E 031°07'1 2.6
2018-May-20 00:01S 30°02' E 031°08'3 5.0
2018-May-19 23:28S 30°02' E 031°11'0 1.1
2018-May-19 23:00S 30°01' E 031°11'0 0.6
2018-May-19 22:30S 30°01' E 031°11'0 0.4
2018-May-19 22:00S 30°01' E 031°11'3 5.2
2018-May-19 21:31S 30°01' E 031°14'3 5.1
2018-May-19 21:01S 30°01' E 031°17'0 0.9
2018-May-19 20:30S 30°00' E 031°16'0 0.0
2018-May-19 20:01S 30°00' E 031°16'0 0.1
2018-May-19 19:31S 30°00' E 031°16'1 1.1
2018-May-19 19:00S 30°00' E 031°17'4 7.5
2018-May-19 18:31S 29°60' E 031°21'0 0.5
2018-May-19 18:00S 29°60' E 031°21'0 0.7
2018-May-19 17:30S 29°60' E 031°21'0 0.1
2018-May-19 17:00S 29°60' E 031°21'0 0.2
2018-May-19 16:30S 29°60' E 031°21'1 1.4
2018-May-19 15:58S 30°00' E 031°22'3 7.4
2018-May-19 15:31S 30°00' E 031°26'4 8.1
2018-May-19 15:01S 29°60' E 031°30'2 4.3
2018-May-19 14:30S 29°59' E 031°32'2 3.0
2018-May-19 13:59S 29°59' E 031°31'1 2.9
2018-May-19 13:30S 29°59' E 031°29'1 2.8
2018-May-19 13:00S 29°59' E 031°27'1 2.8
2018-May-19 12:30S 29°59' E 031°26'1 2.6
2018-May-19 11:59S 29°59' E 031°24'1 2.6
2018-May-19 11:31S 29°59' E 031°23'1 2.7
2018-May-19 11:00S 29°60' E 031°21'1 2.8
2018-May-19 10:31S 29°60' E 031°20'1 2.8
2018-May-19 10:00S 30°00' E 031°18'1 2.8
2018-May-19 09:30S 30°00' E 031°17'1 2.7
2018-May-19 09:01S 30°01' E 031°15'5 2.8
2018-May-19 07:15S 30°02' E 031°09'1 2.9
2018-May-19 07:00S 30°02' E 031°09'1 2.9
2018-May-19 06:30S 30°02' E 031°07'2 3.3
2018-May-19 06:01S 30°02' E 031°05'2 3.4
2018-May-19 05:30S 30°03' E 031°03'2 3.2
2018-May-19 05:01S 30°03' E 031°01'1 1.2
2018-May-19 04:31S 30°03' E 031°02'4 7.9
2018-May-19 04:00S 30°03' E 031°07'4 9.2
2018-May-19 03:31S 30°02' E 031°12'5 9.2
2018-May-19 03:00S 30°02' E 031°17'5 9.4
2018-May-19 02:31S 30°01' E 031°22'4 8.8
2018-May-19 02:00S 29°60' E 031°27'5 8.8
2018-May-19 01:30S 29°60' E 031°32'20 9.3
2018-May-18 23:23S 29°57' E 031°55'1 2.4
2018-May-18 23:00S 29°56' E 031°55'2 2.2
2018-May-18 22:18S 29°55' E 031°53'1 2.3
2018-May-18 22:00S 29°55' E 031°52'1 2.1
2018-May-18 21:30S 29°55' E 031°51'1 1.8
2018-May-18 20:59S 29°56' E 031°50'1 2.0
2018-May-18 20:30S 29°56' E 031°49'1 1.8
2018-May-18 20:00S 29°56' E 031°48'1 1.8
2018-May-18 19:30S 29°56' E 031°47'1 1.9
2018-May-18 19:00S 29°56' E 031°46'1 2.2
2018-May-18 18:30S 29°56' E 031°45'1 2.4
2018-May-18 18:01S 29°56' E 031°44'1 2.2
2018-May-18 17:31S 29°57' E 031°42'1 2.0
2018-May-18 16:59S 29°57' E 031°41'1 2.1
2018-May-18 16:30S 29°57' E 031°40'1 2.3
2018-May-18 16:00S 29°57' E 031°39'1 2.2
2018-May-18 15:30S 29°57' E 031°37'1 2.2
2018-May-18 15:00S 29°57' E 031°36'1 2.3
2018-May-18 14:30S 29°57' E 031°35'1 2.3
2018-May-18 14:00S 29°58' E 031°34'1 2.3
2018-May-18 13:30S 29°58' E 031°32'1 2.3
2018-May-18 13:00S 29°58' E 031°31'1 2.4
2018-May-18 12:30S 29°58' E 031°30'1 2.4
2018-May-18 12:00S 29°59' E 031°28'1 2.3
2018-May-18 11:31S 29°59' E 031°27'1 2.2
2018-May-18 10:59S 29°59' E 031°26'1 2.3
2018-May-18 10:30S 29°59' E 031°24'  
Track history (hours):
 
Tides and Currents Weather Stations Pressure Air Temp Water Temp Dewpoint Dewpoint Depression Visibility Wind Speed Wind Dir Waves Ship Positions

Oceanographic research ship Explora (Italy)

Detailed information on ship capabilities available from University of Delaware's Ocean Information Center.

Last reported at 2018-May-28 10:13 UTC. Time now 2018-Jun-18 00:24 UTC.
Position S 29°50' E 032°15'.
Warning: this ship's position is 20 days out of date.

Length 73 m; draft 5.5 m.

Type: Dredging. MMSI: 247028700.

Date/timePositionNaut miles runAvg speedWind from/ knotsBaromVisibWave heightAir tempDewpointWater temp
2018-May-28 10:13S 29°50' E 032°15'8 7.6
2018-May-28 09:11S 29°51' E 032°05'3 7.5
2018-May-28 08:50S 29°51' E 032°03'6 7.3
2018-May-28 08:04S 29°53' E 031°56'0 7.0
2018-May-28 08:00S 29°53' E 031°56'4 7.4
2018-May-28 07:30S 29°53' E 031°52'0 0.8
2018-May-28 07:00S 29°53' E 031°51'0 0.3
2018-May-28 06:30S 29°53' E 031°51'0 0.4
2018-May-28 06:01S 29°53' E 031°51'0 0.2
2018-May-28 05:30S 29°53' E 031°51'0 0.8
2018-May-28 05:00S 29°53' E 031°52'0 0.7
2018-May-28 04:30S 29°53' E 031°52'0 0.7
2018-May-28 04:00S 29°53' E 031°51'0 0.7
2018-May-28 03:31S 29°54' E 031°51'0 0.5
2018-May-28 03:00S 29°54' E 031°51'0 0.6
2018-May-28 02:31S 29°54' E 031°51'0 0.7
2018-May-28 02:00S 29°54' E 031°51'0 1.0
2018-May-28 01:30S 29°55' E 031°51'1 1.1
2018-May-28 01:00S 29°55' E 031°51'1 1.2
2018-May-28 00:31S 29°56' E 031°50'0 0.9
2018-May-28 00:01S 29°56' E 031°50'0 0.5
2018-May-27 23:31S 29°56' E 031°50'0 0.3
2018-May-27 23:00S 29°56' E 031°51'0 0.7
2018-May-27 22:31S 29°57' E 031°51'1 1.5
2018-May-27 22:00S 29°57' E 031°50'0 0.9
2018-May-27 21:30S 29°57' E 031°50'1 1.1
2018-May-27 21:00S 29°57' E 031°50'4 0.4
2018-May-27 09:02S 29°55' E 031°54'0 4.7
2018-May-27 09:00S 29°55' E 031°54'2 4.8
2018-May-27 08:30S 29°58' E 031°54'1 1.4
2018-May-27 07:54S 29°57' E 031°55'1 1.8
2018-May-27 07:30S 29°56' E 031°55'1 1.5
2018-May-27 06:56S 29°55' E 031°55'2 3.2
2018-May-27 06:27S 29°55' E 031°53'2 5.1
2018-May-27 06:00S 29°55' E 031°51'0 0.7
2018-May-27 05:30S 29°55' E 031°50'1 1.1
2018-May-27 05:00S 29°55' E 031°50'0 1.0
2018-May-27 04:31S 29°56' E 031°50'0 0.9
2018-May-27 04:01S 29°56' E 031°50'1 1.1
2018-May-27 03:30S 29°56' E 031°49'0 0.9
2018-May-27 03:00S 29°57' E 031°49'0 0.9
2018-May-27 02:30S 29°57' E 031°48'0 0.8
2018-May-27 02:01S 29°57' E 031°48'0 0.7
2018-May-27 01:30S 29°57' E 031°47'0 0.8
2018-May-27 01:00S 29°56' E 031°47'0 0.4
2018-May-27 00:31S 29°56' E 031°47'0 0.4
2018-May-27 00:00S 29°56' E 031°47'0 0.4
2018-May-26 23:30S 29°56' E 031°46'0 0.2
2018-May-26 23:00S 29°56' E 031°46'0 0.2
2018-May-26 22:31S 29°56' E 031°46'0 0.1
2018-May-26 22:00S 29°56' E 031°46'0 0.4
2018-May-26 21:31S 29°56' E 031°46'1 1.2
2018-May-26 20:58S 29°56' E 031°47'1 2.3
2018-May-26 20:30S 29°56' E 031°48'2 4.8
2018-May-26 20:00S 29°53' E 031°49'2 4.8
2018-May-26 19:30S 29°51' E 031°50'1 1.9
2018-May-26 19:01S 29°50' E 031°50'1 2.2
2018-May-26 18:30S 29°51' E 031°49'1 2.2
2018-May-26 18:00S 29°52' E 031°49'1 2.0
2018-May-26 17:30S 29°53' E 031°48'0 0.8
2018-May-26 17:00S 29°53' E 031°48'1 1.2
2018-May-26 16:30S 29°54' E 031°49'0 0.9
2018-May-26 16:01S 29°54' E 031°49'0 0.9
2018-May-26 15:29S 29°54' E 031°49'0 0.9
2018-May-26 14:59S 29°55' E 031°49'0 0.9
2018-May-26 14:30S 29°55' E 031°50'0 0.6
2018-May-26 14:01S 29°56' E 031°50'0 0.7
2018-May-26 13:30S 29°56' E 031°50'0 0.6
2018-May-26 13:00S 29°56' E 031°50'0 0.7
2018-May-26 12:30S 29°56' E 031°50'0 0.4
2018-May-26 12:00S 29°57' E 031°50'0 0.0
2018-May-26 11:30S 29°57' E 031°50'0 0.2
2018-May-26 11:00S 29°57' E 031°50'0 0.1
2018-May-26 10:31S 29°57' E 031°50'0 0.3
2018-May-26 09:59S 29°57' E 031°50'1 1.1
2018-May-26 09:30S 29°57' E 031°50'1 1.1
2018-May-26 09:00S 29°57' E 031°50'0 0.1
2018-May-26 08:30S 29°57' E 031°50'1 1.1
2018-May-26 08:00S 29°57' E 031°50'3 6.5
2018-May-26 07:30S 30°00' E 031°48'3 6.7
2018-May-26 07:00S 30°03' E 031°46'3 6.8
2018-May-26 06:29S 30°06' E 031°44'6 6.5
2018-May-26 05:30S 30°11' E 031°40'3 6.1
2018-May-26 05:00S 30°14' E 031°38'3 5.7
2018-May-26 04:31S 30°11' E 031°39'3 5.4
2018-May-26 04:00S 30°09' E 031°41'2 4.9
2018-May-26 03:31S 30°07' E 031°42'3 5.1
2018-May-26 02:59S 30°04' E 031°44'3 6.0
2018-May-26 02:30S 30°02' E 031°45'3 5.4
2018-May-26 02:01S 29°59' E 031°47'3 5.3
2018-May-26 01:30S 29°57' E 031°48'3 5.3
2018-May-26 00:59S 29°54' E 031°47'3 5.7
2018-May-26 00:30S 29°51' E 031°47'3 5.5
2018-May-26 00:01S 29°49' E 031°47'3 5.6
2018-May-25 23:30S 29°46' E 031°47'3 5.5
2018-May-25 23:00S 29°43' E 031°47'3 5.7
2018-May-25 22:30S 29°40' E 031°47'3 6.0
2018-May-25 22:00S 29°37' E 031°47'3 6.3
2018-May-25 21:31S 29°34' E 031°47'3 6.3
2018-May-25 21:00S 29°31' E 031°47'2 3.1
2018-May-25 20:25S 29°29' E 031°48'5 2.8
2018-May-25 18:40S 29°25' E 031°51'2 2.3
2018-May-25 17:58S 29°27' E 031°51'1 2.7
2018-May-25 17:27S 29°28' E 031°50'1 2.0
2018-May-25 17:00S 29°29' E 031°51'1 1.8
2018-May-25 16:27S 29°30' E 031°51'1 1.5
2018-May-25 15:58S 29°31' E 031°51'1 1.5
2018-May-25 15:26S 29°31' E 031°51'1 2.0
2018-May-25 14:57S 29°32' E 031°51'1 2.4
2018-May-25 14:29S 29°33' E 031°51'1 2.5
2018-May-25 13:58S 29°35' E 031°51'1 2.7
2018-May-25 13:31S 29°36' E 031°50'1 2.8
2018-May-25 13:00S 29°37' E 031°50'1 2.8
2018-May-25 12:31S 29°38' E 031°49'1 2.6
2018-May-25 12:01S 29°40' E 031°49'1 2.4
2018-May-25 11:30S 29°41' E 031°49'1 2.7
2018-May-25 11:00S 29°42' E 031°49'1 2.6
2018-May-25 10:30S 29°44' E 031°49'1 2.7
2018-May-25 10:00S 29°45' E 031°49'1 2.5
2018-May-25 09:30S 29°46' E 031°49'1 2.4
2018-May-25 09:00S 29°47' E 031°49'1 2.2
2018-May-25 08:30S 29°48' E 031°49'1 2.0
2018-May-25 08:00S 29°49' E 031°48'1 2.2
2018-May-25 07:29S 29°51' E 031°48'1 2.2
2018-May-25 07:00S 29°52' E 031°48'1 2.2
2018-May-25 06:30S 29°53' E 031°48'1 2.1
2018-May-25 05:58S 29°54' E 031°48'1 2.3
2018-May-25 05:30S 29°55' E 031°48'1 1.9
2018-May-25 05:00S 29°56' E 031°48'2 3.0
2018-May-25 04:30S 29°56' E 031°50'5 4.0
2018-May-25 03:21S 29°55' E 031°55'1 2.4
2018-May-25 03:00S 29°54' E 031°55'1 1.8
2018-May-25 02:31S 29°55' E 031°54'1 1.9
2018-May-25 02:00S 29°55' E 031°53'1 1.9
2018-May-25 01:30S 29°55' E 031°52'1 1.8
2018-May-25 01:00S 29°56' E 031°51'1 2.2
2018-May-25 00:28S 29°56' E 031°50'1 2.3
2018-May-25 00:00S 29°56' E 031°48'1 2.3
2018-May-24 23:30S 29°56' E 031°47'1 2.2
2018-May-24 23:01S 29°56' E 031°46'1 1.9
2018-May-24 22:30S 29°56' E 031°45'1 1.8
2018-May-24 22:00S 29°56' E 031°44'1 1.5
2018-May-24 21:30S 29°57' E 031°43'1 1.2
2018-May-24 21:01S 29°57' E 031°42'1 1.2
2018-May-24 20:31S 29°57' E 031°42'1 1.4
2018-May-24 20:00S 29°57' E 031°41'1 1.6
2018-May-24 19:30S 29°57' E 031°40'1 1.6
2018-May-24 19:00S 29°57' E 031°39'1 1.6
2018-May-24 18:30S 29°57' E 031°38'1 1.5
2018-May-24 18:00S 29°57' E 031°37'1 1.3
2018-May-24 17:30S 29°57' E 031°36'1 1.5
2018-May-24 17:00S 29°57' E 031°36'1 1.7
2018-May-24 16:31S 29°58' E 031°35'1 1.7
2018-May-24 16:00S 29°58' E 031°34'1 1.7
2018-May-24 15:30S 29°58' E 031°33'1 1.5
2018-May-24 15:00S 29°58' E 031°32'1 1.7
2018-May-24 14:31S 29°58' E 031°31'1 1.9
2018-May-24 14:00S 29°58' E 031°30'1 1.9
2018-May-24 13:30S 29°59' E 031°29'5 1.2
2018-May-24 09:01S 30°01' E 031°34'4 7.4
2018-May-24 08:31S 29°58' E 031°36'12 9.9
2018-May-24 07:15S 29°56' E 031°50'0 1.5
2018-May-24 07:00S 29°57' E 031°50'1 1.0
2018-May-24 06:28S 29°57' E 031°51'0 0.7
2018-May-24 05:53S 29°57' E 031°50'0 1.1
2018-May-24 05:29S 29°56' E 031°50'1 2.1
2018-May-24 05:00S 29°57' E 031°49'1 2.1
2018-May-24 04:31S 29°58' E 031°49'1 1.3
2018-May-24 04:00S 29°57' E 031°49'1 1.4
2018-May-24 03:30S 29°57' E 031°49'1 1.2
2018-May-24 03:00S 29°56' E 031°49'1 2.0
2018-May-24 02:30S 29°57' E 031°48'2 3.0
2018-May-24 02:00S 29°56' E 031°46'0 0.6
2018-May-24 01:30S 29°57' E 031°46'2 4.6
2018-May-24 01:01S 29°56' E 031°44'0 0.9
2018-May-24 00:30S 29°57' E 031°44'1 2.3
2018-May-24 00:00S 29°57' E 031°43'2 4.4
2018-May-23 23:31S 29°57' E 031°41'0 0.4
2018-May-23 23:00S 29°57' E 031°41'0 0.7
2018-May-23 22:30S 29°57' E 031°41'2 3.2
2018-May-23 22:00S 29°57' E 031°39'1 1.4
2018-May-23 21:30S 29°57' E 031°38'0 0.4
2018-May-23 21:00S 29°57' E 031°38'1 2.5
2018-May-23 20:30S 29°58' E 031°37'2 4.3
2018-May-23 20:00S 30°00' E 031°36'2 4.2
2018-May-23 19:30S 30°02' E 031°34'2 4.3
2018-May-23 19:01S 30°04' E 031°33'2 3.9
2018-May-23 18:30S 30°06' E 031°33'0 0.9
2018-May-23 18:00S 30°06' E 031°33'0 0.9
2018-May-23 17:30S 30°06' E 031°33'0 0.9
2018-May-23 17:01S 30°06' E 031°33'0 0.9
2018-May-23 16:31S 30°07' E 031°32'0 0.9
2018-May-23 16:00S 30°07' E 031°32'1 1.0
2018-May-23 15:29S 30°07' E 031°31'1 1.0
2018-May-23 15:00S 30°07' E 031°31'1 1.1
2018-May-23 14:30S 30°08' E 031°30'1 1.2
2018-May-23 14:00S 30°08' E 031°30'1 1.3
2018-May-23 13:30S 30°08' E 031°29'1 1.6
2018-May-23 13:01S 30°08' E 031°28'1 2.2
2018-May-23 12:30S 30°09' E 031°27'1 2.6
2018-May-23 12:00S 30°11' E 031°27'1 2.4
2018-May-23 11:29S 30°12' E 031°26'1 1.9
2018-May-23 11:00S 30°13' E 031°26'1 1.4
2018-May-23 10:31S 30°13' E 031°27'1 1.3
2018-May-23 10:00S 30°14' E 031°27'1 1.4
2018-May-23 09:29S 30°15' E 031°27'1 1.6
2018-May-23 09:00S 30°14' E 031°28'3 6.7
2018-May-23 08:30S 30°11' E 031°30'3 6.8
2018-May-23 08:01S 30°08' E 031°31'3 6.5
2018-May-23 07:30S 30°05' E 031°33'3 6.8
2018-May-23 07:00S 30°02' E 031°34'3 6.8
2018-May-23 06:31S 29°58' E 031°35'1 1.2
2018-May-23 06:01S 29°58' E 031°35'1 1.0
2018-May-23 05:31S 29°57' E 031°34'1 1.7
2018-May-23 05:00S 29°58' E 031°33'2 4.2
2018-May-23 04:30S 29°59' E 031°32'1 1.9
2018-May-23 04:00S 29°58' E 031°31'1 2.1
2018-May-23 03:30S 29°59' E 031°30'1 2.4
2018-May-23 02:58S 29°59' E 031°29'0 0.8
2018-May-23 02:31S 29°58' E 031°28'1 1.5
2018-May-23 02:01S 29°59' E 031°28'1 3.0
2018-May-23 01:31S 29°59' E 031°26'0 0.8
2018-May-23 00:59S 29°59' E 031°26'2 3.9
2018-May-23 00:30S 29°59' E 031°24'1 1.9
2018-May-22 23:59S 29°59' E 031°23'0 0.1
2018-May-22 23:31S 29°59' E 031°23'2 3.4
2018-May-22 23:00S 30°00' E 031°24'1 1.9
2018-May-22 22:30S 30°01' E 031°25'1 2.1
2018-May-22 22:00S 29°60' E 031°24'1 2.0
2018-May-22 21:30S 29°60' E 031°23'1 1.2
2018-May-22 21:00S 29°59' E 031°23'1 2.4
2018-May-22 20:30S 29°59' E 031°21'1 2.1
2018-May-22 20:01S 29°60' E 031°20'0 0.1
2018-May-22 19:31S 29°60' E 031°20'0 0.3
2018-May-22 19:00S 29°60' E 031°20'0 0.2
2018-May-22 18:31S 29°60' E 031°20'2 3.3
2018-May-22 18:01S 30°00' E 031°18'0 0.9
2018-May-22 17:30S 30°00' E 031°18'0 0.1
2018-May-22 17:01S 30°00' E 031°18'1 1.4
2018-May-22 16:31S 29°60' E 031°17'2 4.6
2018-May-22 16:00S 30°00' E 031°14'1 1.2
2018-May-22 15:31S 30°01' E 031°15'0 0.2
2018-May-22 15:01S 30°01' E 031°15'0 0.3
2018-May-22 14:31S 30°00' E 031°15'0 0.9
2018-May-22 14:00S 30°00' E 031°15'3 6.5
2018-May-22 13:31S 30°01' E 031°11'5 9.5
2018-May-22 13:01S 30°01' E 031°05'5 9.2
2018-May-22 12:30S 30°02' E 031°00'2 3.2
2018-May-22 12:00S 30°02' E 030°58'1 2.0
2018-May-22 11:30S 30°02' E 030°57'1 1.3
2018-May-22 11:00S 30°02' E 030°57'1 2.9
2018-May-22 10:31S 30°03' E 030°55'0 0.3
2018-May-22 10:01S 30°03' E 030°55'0 0.9
2018-May-22 09:30S 30°03' E 030°56'1 2.0
2018-May-22 09:00S 30°03' E 030°57'0 0.7
2018-May-22 08:31S 30°03' E 030°57'0 0.8
2018-May-22 08:00S 30°03' E 030°57'0 0.7
2018-May-22 07:31S 30°03' E 030°57'0 0.6
2018-May-22 07:00S 30°03' E 030°57'1 2.3
2018-May-22 06:31S 30°03' E 030°56'2 3.6
2018-May-22 06:00S 30°03' E 030°58'5 9.7
2018-May-22 05:31S 30°03' E 031°04'5 9.7
2018-May-22 05:01S 30°02' E 031°09'5 9.4
2018-May-22 04:30S 30°01' E 031°15'1 1.9
2018-May-22 04:00S 30°01' E 031°14'0 0.6
2018-May-22 03:30S 30°01' E 031°13'0 0.7
2018-May-22 03:00S 30°01' E 031°14'0 0.6
2018-May-22 02:30S 30°01' E 031°13'0 0.2
2018-May-22 02:00S 30°01' E 031°13'1 1.2
2018-May-22 01:31S 30°01' E 031°13'1 1.7
2018-May-22 01:00S 30°01' E 031°12'0 0.6
2018-May-22 00:31S 30°01' E 031°12'0 0.3
2018-May-22 00:00S 30°01' E 031°12'0 0.6
2018-May-21 23:30S 30°01' E 031°11'2 3.6
2018-May-21 23:00S 30°02' E 031°09'0 0.6
2018-May-21 22:31S 30°02' E 031°09'0 0.0
2018-May-21 22:00S 30°02' E 031°09'1 2.0
2018-May-21 21:30S 30°02' E 031°08'1 1.6
2018-May-21 21:00S 30°02' E 031°07'0 0.3
2018-May-21 20:30S 30°02' E 031°07'0 0.3
2018-May-21 20:00S 30°02' E 031°07'2 3.6
2018-May-21 19:30S 30°02' E 031°05'1 1.6
2018-May-21 19:00S 30°02' E 031°04'0 0.2
2018-May-21 18:31S 30°02' E 031°04'1 3.0
2018-May-21 18:01S 30°03' E 031°02'1 1.5
2018-May-21 17:31S 30°03' E 031°02'0 0.5
2018-May-21 17:00S 30°03' E 031°01'1 3.0
2018-May-21 16:30S 30°03' E 030°60'0 0.5
2018-May-21 16:00S 30°03' E 030°59'0 0.4
2018-May-21 15:30S 30°03' E 030°59'1 2.3
2018-May-21 15:00S 30°03' E 030°58'0 0.8
2018-May-21 14:31S 30°02' E 030°58'1 1.3
2018-May-21 13:58S 30°03' E 030°58'1 2.2
2018-May-21 13:30S 30°02' E 030°57'1 1.1
2018-May-21 13:01S 30°02' E 030°57'0 0.3
2018-May-21 12:30S 30°01' E 030°57'1 2.9
2018-May-21 12:01S 30°02' E 030°58'1 2.4
2018-May-21 11:30S 30°02' E 030°57'1 1.1
2018-May-21 11:00S 30°01' E 030°57'1 2.7
2018-May-21 10:30S 30°03' E 030°56'1 2.5
2018-May-21 10:00S 30°03' E 030°55'1 2.0
2018-May-21 09:30S 30°03' E 030°56'3 3.3
2018-May-21 08:34S 30°03' E 030°59'0 2.1
2018-May-21 08:30S 30°03' E 030°59'2 3.2
2018-May-21 08:01S 30°03' E 030°57'2 4.6
2018-May-21 07:30S 30°03' E 030°60'1 2.0
2018-May-21 07:01S 30°03' E 030°59'0 0.5
2018-May-21 06:31S 30°03' E 030°59'1 1.3
2018-May-21 06:00S 30°03' E 030°58'0 0.3
2018-May-21 05:31S 30°03' E 030°58'1 2.1
2018-May-21 05:00S 30°03' E 030°57'2 3.1
2018-May-21 04:30S 30°03' E 030°55'2 3.0
2018-May-21 04:00S 30°03' E 030°57'1 1.8
2018-May-21 03:30S 30°03' E 030°56'1 1.6
2018-May-21 03:00S 30°03' E 030°56'2 3.1
2018-May-21 02:30S 30°03' E 030°58'2 3.8
2018-May-21 02:01S 30°03' E 031°00'2 4.2
2018-May-21 01:30S 30°03' E 030°58'2 4.0
2018-May-21 01:01S 30°03' E 030°56'0 0.5
2018-May-21 00:30S 30°03' E 030°56'2 4.0
2018-May-21 00:01S 30°03' E 030°58'1 1.1
2018-May-20 23:30S 30°03' E 030°59'2 3.6
2018-May-20 23:01S 30°02' E 030°57'1 2.0
2018-May-20 22:30S 30°02' E 030°58'1 1.2
2018-May-20 22:00S 30°02' E 030°58'2 4.3
2018-May-20 21:30S 30°01' E 030°56'2 4.0
2018-May-20 21:00S 30°02' E 030°58'0 0.5
2018-May-20 20:30S 30°02' E 030°59'2 4.3
2018-May-20 20:00S 30°01' E 030°57'0 0.3
2018-May-20 19:30S 30°01' E 030°57'0 0.4
2018-May-20 19:00S 30°01' E 030°57'0 0.6
2018-May-20 18:30S 30°02' E 030°57'2 4.3
2018-May-20 18:01S 30°03' E 030°59'2 3.7
2018-May-20 17:30S 30°03' E 030°57'2 3.1
2018-May-20 17:00S 30°03' E 030°55'0 0.6
2018-May-20 16:30S 30°03' E 030°55'0 0.0
2018-May-20 16:00S 30°03' E 030°55'4 7.0
2018-May-20 15:30S 30°03' E 030°59'1 2.6
2018-May-20 15:00S 30°03' E 031°00'0 0.0
2018-May-20 14:30S 30°03' E 031°00'2 4.7
2018-May-20 14:00S 30°03' E 031°03'0 0.7
2018-May-20 13:30S 30°03' E 031°03'0 0.5
2018-May-20 13:00S 30°02' E 031°02'1 1.3
2018-May-20 12:30S 30°03' E 031°02'4 7.4
2018-May-20 12:00S 30°02' E 031°06'0 0.7
2018-May-20 11:30S 30°02' E 031°06'0 0.7
2018-May-20 11:00S 30°02' E 031°06'0 0.8
2018-May-20 10:30S 30°02' E 031°05'0 0.7
2018-May-20 10:01S 30°03' E 031°05'0 0.9
2018-May-20 09:31S 30°03' E 031°05'0 0.8
2018-May-20 09:01S 30°03' E 031°04'0 0.5
2018-May-20 08:30S 30°03' E 031°04'0 0.2
2018-May-20 08:01S 30°03' E 031°04'0 0.4
2018-May-20 07:30S 30°03' E 031°04'0 0.3
2018-May-20 07:00S 30°03' E 031°04'0 0.1
2018-May-20 06:31S 30°03' E 031°04'1 1.1
2018-May-20 06:00S 30°03' E 031°04'0 0.8
2018-May-20 05:31S 30°03' E 031°04'0 0.8
2018-May-20 05:00S 30°03' E 031°04'0 0.8
2018-May-20 04:30S 30°03' E 031°03'0 0.9
2018-May-20 03:58S 30°03' E 031°03'0 0.6
2018-May-20 03:30S 30°03' E 031°02'1 2.1
2018-May-20 03:00S 30°03' E 031°03'3 6.9
2018-May-20 02:31S 30°02' E 031°07'1 1.0
2018-May-20 02:00S 30°02' E 031°07'0 0.2
2018-May-20 01:30S 30°02' E 031°07'0 0.7
2018-May-20 01:00S 30°02' E 031°07'0 0.7
2018-May-20 00:30S 30°02' E 031°07'1 2.6
2018-May-20 00:01S 30°02' E 031°08'3 5.0
2018-May-19 23:28S 30°02' E 031°11'0 1.1
2018-May-19 23:00S 30°01' E 031°11'0 0.6
2018-May-19 22:30S 30°01' E 031°11'0 0.4
2018-May-19 22:00S 30°01' E 031°11'3 5.2
2018-May-19 21:31S 30°01' E 031°14'3 5.1
2018-May-19 21:01S 30°01' E 031°17'0 0.9
2018-May-19 20:30S 30°00' E 031°16'0 0.0
2018-May-19 20:01S 30°00' E 031°16'0 0.1
2018-May-19 19:31S 30°00' E 031°16'1 1.1
2018-May-19 19:00S 30°00' E 031°17'4 7.5
2018-May-19 18:31S 29°60' E 031°21'0 0.5
2018-May-19 18:00S 29°60' E 031°21'0 0.7
2018-May-19 17:30S 29°60' E 031°21'0 0.1
2018-May-19 17:00S 29°60' E 031°21'0 0.2
2018-May-19 16:30S 29°60' E 031°21'1 1.4
2018-May-19 15:58S 30°00' E 031°22'3 7.4
2018-May-19 15:31S 30°00' E 031°26'4 8.1
2018-May-19 15:01S 29°60' E 031°30'2 4.3
2018-May-19 14:30S 29°59' E 031°32'2 3.0
2018-May-19 13:59S 29°59' E 031°31'1 2.9
2018-May-19 13:30S 29°59' E 031°29'1 2.8
2018-May-19 13:00S 29°59' E 031°27'1 2.8
2018-May-19 12:30S 29°59' E 031°26'1 2.6
2018-May-19 11:59S 29°59' E 031°24'1 2.6
2018-May-19 11:31S 29°59' E 031°23'1 2.7
2018-May-19 11:00S 29°60' E 031°21'1 2.8
2018-May-19 10:31S 29°60' E 031°20'1 2.8
2018-May-19 10:00S 30°00' E 031°18'1 2.8
2018-May-19 09:30S 30°00' E 031°17'1 2.7
2018-May-19 09:01S 30°01' E 031°15'5 2.8
2018-May-19 07:15S 30°02' E 031°09'1 2.9
2018-May-19 07:00S 30°02' E 031°09'1 2.9
2018-May-19 06:30S 30°02' E 031°07'2 3.3
2018-May-19 06:01S 30°02' E 031°05'2 3.4
2018-May-19 05:30S 30°03' E 031°03'2 3.2
2018-May-19 05:01S 30°03' E 031°01'1 1.2
2018-May-19 04:31S 30°03' E 031°02'4 7.9
2018-May-19 04:00S 30°03' E 031°07'4 9.2
2018-May-19 03:31S 30°02' E 031°12'5 9.2
2018-May-19 03:00S 30°02' E 031°17'5 9.4
2018-May-19 02:31S 30°01' E 031°22'4 8.8
2018-May-19 02:00S 29°60' E 031°27'5 8.8
2018-May-19 01:30S 29°60' E 031°32'20 9.3
2018-May-18 23:23S 29°57' E 031°55'1 2.4
2018-May-18 23:00S 29°56' E 031°55'2 2.2
2018-May-18 22:18S 29°55' E 031°53'1 2.3
2018-May-18 22:00S 29°55' E 031°52'1 2.1
2018-May-18 21:30S 29°55' E 031°51'1 1.8
2018-May-18 20:59S 29°56' E 031°50'1 2.0
2018-May-18 20:30S 29°56' E 031°49'1 1.8
2018-May-18 20:00S 29°56' E 031°48'1 1.8
2018-May-18 19:30S 29°56' E 031°47'1 1.9
2018-May-18 19:00S 29°56' E 031°46'1 2.2
2018-May-18 18:30S 29°56' E 031°45'1 2.4
2018-May-18 18:01S 29°56' E 031°44'1 2.2
2018-May-18 17:31S 29°57' E 031°42'1 2.0
2018-May-18 16:59S 29°57' E 031°41'1 2.1
2018-May-18 16:30S 29°57' E 031°40'1 2.3
2018-May-18 16:00S 29°57' E 031°39'1 2.2
2018-May-18 15:30S 29°57' E 031°37'1 2.2
2018-May-18 15:00S 29°57' E 031°36'1 2.3
2018-May-18 14:30S 29°57' E 031°35'1 2.3
2018-May-18 14:00S 29°58' E 031°34'1 2.3
2018-May-18 13:30S 29°58' E 031°32'1 2.3
2018-May-18 13:00S 29°58' E 031°31'1 2.4
2018-May-18 12:30S 29°58' E 031°30'1 2.4
2018-May-18 12:00S 29°59' E 031°28'1 2.3
2018-May-18 11:31S 29°59' E 031°27'1 2.2
2018-May-18 10:59S 29°59' E 031°26'1 2.3
2018-May-18 10:30S 29°59' E 031°24'  

Dump ship's entire track history